sensor_id;sensor_type;location;lat;lon;timestamp;P1;durP1;ratioP1;P2;durP2;ratioP2
1262;SDS011;62267;50.112;8.704;2023-01-30T00:00:54;30.90;;;18.23;;
1262;SDS011;62267;50.112;8.704;2023-01-30T00:03:23;33.93;;;18.23;;
1262;SDS011;62267;50.112;8.704;2023-01-30T00:05:51;31.90;;;17.70;;
1262;SDS011;62267;50.112;8.704;2023-01-30T00:08:18;28.13;;;17.77;;
1262;SDS011;62267;50.112;8.704;2023-01-30T00:10:46;28.63;;;17.53;;
1262;SDS011;62267;50.112;8.704;2023-01-30T00:13:13;26.10;;;16.40;;
1262;SDS011;62267;50.112;8.704;2023-01-30T00:15:41;29.33;;;18.10;;
1262;SDS011;62267;50.112;8.704;2023-01-30T00:18:09;28.60;;;17.37;;
1262;SDS011;62267;50.112;8.704;2023-01-30T00:20:37;29.00;;;16.40;;
1262;SDS011;62267;50.112;8.704;2023-01-30T00:23:05;27.63;;;17.00;;
1262;SDS011;62267;50.112;8.704;2023-01-30T00:25:32;28.20;;;17.60;;
1262;SDS011;62267;50.112;8.704;2023-01-30T00:28:00;29.67;;;17.10;;
1262;SDS011;62267;50.112;8.704;2023-01-30T00:30:28;25.40;;;15.63;;
1262;SDS011;62267;50.112;8.704;2023-01-30T00:32:57;26.90;;;15.43;;
1262;SDS011;62267;50.112;8.704;2023-01-30T00:35:25;28.00;;;16.70;;
1262;SDS011;62267;50.112;8.704;2023-01-30T00:37:56;29.13;;;17.83;;
1262;SDS011;62267;50.112;8.704;2023-01-30T00:40:24;27.77;;;16.27;;
1262;SDS011;62267;50.112;8.704;2023-01-30T00:42:52;30.50;;;18.43;;
1262;SDS011;62267;50.112;8.704;2023-01-30T00:45:39;31.77;;;17.17;;
1262;SDS011;62267;50.112;8.704;2023-01-30T00:48:26;27.13;;;15.80;;
1262;SDS011;62267;50.112;8.704;2023-01-30T00:50:55;30.63;;;16.17;;
1262;SDS011;62267;50.112;8.704;2023-01-30T00:53:22;31.33;;;19.07;;
1262;SDS011;62267;50.112;8.704;2023-01-30T00:55:50;26.03;;;16.00;;
1262;SDS011;62267;50.112;8.704;2023-01-30T00:58:19;31.53;;;16.70;;
1262;SDS011;62267;50.112;8.704;2023-01-30T01:00:46;29.87;;;17.43;;
1262;SDS011;62267;50.112;8.704;2023-01-30T01:03:14;28.10;;;15.87;;
1262;SDS011;62267;50.112;8.704;2023-01-30T01:05:42;28.97;;;17.40;;
1262;SDS011;62267;50.112;8.704;2023-01-30T01:08:12;29.03;;;16.10;;
1262;SDS011;62267;50.112;8.704;2023-01-30T01:10:39;25.47;;;15.87;;
1262;SDS011;62267;50.112;8.704;2023-01-30T01:13:07;29.47;;;17.27;;
1262;SDS011;62267;50.112;8.704;2023-01-30T01:15:36;26.90;;;15.80;;
1262;SDS011;62267;50.112;8.704;2023-01-30T01:18:05;28.37;;;15.80;;
1262;SDS011;62267;50.112;8.704;2023-01-30T01:20:32;29.53;;;15.97;;
1262;SDS011;62267;50.112;8.704;2023-01-30T01:23:01;30.47;;;17.23;;
1262;SDS011;62267;50.112;8.704;2023-01-30T01:25:30;32.43;;;17.37;;
1262;SDS011;62267;50.112;8.704;2023-01-30T01:27:59;31.37;;;18.37;;
1262;SDS011;62267;50.112;8.704;2023-01-30T01:30:28;34.50;;;16.37;;
1262;SDS011;62267;50.112;8.704;2023-01-30T01:32:56;31.03;;;16.80;;
1262;SDS011;62267;50.112;8.704;2023-01-30T01:35:23;31.97;;;16.83;;
1262;SDS011;62267;50.112;8.704;2023-01-30T01:37:54;28.77;;;16.77;;
1262;SDS011;62267;50.112;8.704;2023-01-30T01:40:22;32.53;;;18.00;;
1262;SDS011;62267;50.112;8.704;2023-01-30T01:43:17;28.93;;;17.13;;
1262;SDS011;62267;50.112;8.704;2023-01-30T01:45:45;27.73;;;16.90;;
1262;SDS011;62267;50.112;8.704;2023-01-30T01:48:16;27.13;;;17.27;;
1262;SDS011;62267;50.112;8.704;2023-01-30T01:50:47;32.50;;;18.33;;
1262;SDS011;62267;50.112;8.704;2023-01-30T01:53:16;32.20;;;17.23;;
1262;SDS011;62267;50.112;8.704;2023-01-30T01:55:46;28.13;;;16.00;;
1262;SDS011;62267;50.112;8.704;2023-01-30T01:58:19;27.30;;;15.23;;
1262;SDS011;62267;50.112;8.704;2023-01-30T02:00:50;27.80;;;16.00;;
1262;SDS011;62267;50.112;8.704;2023-01-30T02:03:19;30.73;;;17.53;;
1262;SDS011;62267;50.112;8.704;2023-01-30T02:05:49;28.83;;;17.50;;
1262;SDS011;62267;50.112;8.704;2023-01-30T02:08:21;27.60;;;15.53;;
1262;SDS011;62267;50.112;8.704;2023-01-30T02:10:51;26.57;;;15.57;;
1262;SDS011;62267;50.112;8.704;2023-01-30T02:13:22;30.07;;;17.23;;
1262;SDS011;62267;50.112;8.704;2023-01-30T02:15:52;25.43;;;15.40;;
1262;SDS011;62267;50.112;8.704;2023-01-30T02:18:21;27.37;;;14.67;;
1262;SDS011;62267;50.112;8.704;2023-01-30T02:31:15;23.03;;;13.57;;
1262;SDS011;62267;50.112;8.704;2023-01-30T02:33:54;26.37;;;15.50;;
1262;SDS011;62267;50.112;8.704;2023-01-30T02:36:39;24.20;;;15.80;;
1262;SDS011;62267;50.112;8.704;2023-01-30T02:39:10;26.60;;;14.53;;
1262;SDS011;62267;50.112;8.704;2023-01-30T02:41:48;31.53;;;15.60;;
1262;SDS011;62267;50.112;8.704;2023-01-30T02:44:43;29.27;;;15.20;;
1262;SDS011;62267;50.112;8.704;2023-01-30T02:47:07;24.77;;;14.10;;
1262;SDS011;62267;50.112;8.704;2023-01-30T02:49:40;27.07;;;15.50;;
1262;SDS011;62267;50.112;8.704;2023-01-30T02:52:08;28.97;;;14.77;;
1262;SDS011;62267;50.112;8.704;2023-01-30T02:54:37;21.70;;;13.60;;
1262;SDS011;62267;50.112;8.704;2023-01-30T02:57:16;25.30;;;14.77;;
1262;SDS011;62267;50.112;8.704;2023-01-30T02:59:45;23.90;;;13.80;;
1262;SDS011;62267;50.112;8.704;2023-01-30T03:10:06;25.67;;;14.90;;
1262;SDS011;62267;50.112;8.704;2023-01-30T03:15:22;28.77;;;16.10;;
1262;SDS011;62267;50.112;8.704;2023-01-30T03:17:53;23.43;;;14.10;;
1262;SDS011;62267;50.112;8.704;2023-01-30T03:20:21;27.23;;;14.33;;
1262;SDS011;62267;50.112;8.704;2023-01-30T03:22:49;28.63;;;16.50;;
1262;SDS011;62267;50.112;8.704;2023-01-30T03:25:18;26.13;;;15.17;;
1262;SDS011;62267;50.112;8.704;2023-01-30T03:27:47;27.70;;;15.40;;
1262;SDS011;62267;50.112;8.704;2023-01-30T03:30:17;27.40;;;16.00;;
1262;SDS011;62267;50.112;8.704;2023-01-30T03:32:47;26.57;;;16.10;;
1262;SDS011;62267;50.112;8.704;2023-01-30T03:35:14;30.60;;;16.80;;
1262;SDS011;62267;50.112;8.704;2023-01-30T03:37:44;26.07;;;15.10;;
1262;SDS011;62267;50.112;8.704;2023-01-30T03:40:12;28.03;;;17.33;;
1262;SDS011;62267;50.112;8.704;2023-01-30T03:42:40;25.07;;;15.47;;
1262;SDS011;62267;50.112;8.704;2023-01-30T03:45:09;27.33;;;15.40;;
1262;SDS011;62267;50.112;8.704;2023-01-30T03:47:38;29.23;;;16.47;;
1262;SDS011;62267;50.112;8.704;2023-01-30T03:50:06;26.33;;;14.57;;
1262;SDS011;62267;50.112;8.704;2023-01-30T03:52:34;24.37;;;15.50;;
1262;SDS011;62267;50.112;8.704;2023-01-30T03:55:08;24.53;;;14.77;;
1262;SDS011;62267;50.112;8.704;2023-01-30T03:57:36;29.83;;;16.00;;
1262;SDS011;62267;50.112;8.704;2023-01-30T04:00:03;30.90;;;15.47;;
1262;SDS011;62267;50.112;8.704;2023-01-30T04:02:41;29.70;;;15.93;;
1262;SDS011;62267;50.112;8.704;2023-01-30T04:05:13;32.77;;;15.83;;
1262;SDS011;62267;50.112;8.704;2023-01-30T04:07:48;29.43;;;14.93;;
1262;SDS011;62267;50.112;8.704;2023-01-30T04:10:17;26.13;;;15.07;;
1262;SDS011;62267;50.112;8.704;2023-01-30T04:12:45;23.47;;;14.47;;
1262;SDS011;62267;50.112;8.704;2023-01-30T04:15:13;29.87;;;17.10;;
1262;SDS011;62267;50.112;8.704;2023-01-30T04:18:15;27.23;;;16.40;;
1262;SDS011;62267;50.112;8.704;2023-01-30T04:20:49;27.93;;;16.60;;
1262;SDS011;62267;50.112;8.704;2023-01-30T04:23:22;30.80;;;17.90;;
1262;SDS011;62267;50.112;8.704;2023-01-30T04:25:50;27.30;;;15.60;;
1262;SDS011;62267;50.112;8.704;2023-01-30T04:28:19;25.93;;;15.87;;
1262;SDS011;62267;50.112;8.704;2023-01-30T04:30:46;28.17;;;16.57;;
1262;SDS011;62267;50.112;8.704;2023-01-30T04:33:34;27.63;;;15.30;;
1262;SDS011;62267;50.112;8.704;2023-01-30T04:36:04;33.47;;;17.37;;
1262;SDS011;62267;50.112;8.704;2023-01-30T04:38:33;31.40;;;17.77;;
1262;SDS011;62267;50.112;8.704;2023-01-30T04:41:03;33.87;;;16.83;;
1262;SDS011;62267;50.112;8.704;2023-01-30T04:43:33;30.40;;;16.23;;
1262;SDS011;62267;50.112;8.704;2023-01-30T04:46:26;31.37;;;17.33;;
1262;SDS011;62267;50.112;8.704;2023-01-30T04:48:56;31.93;;;17.57;;
1262;SDS011;62267;50.112;8.704;2023-01-30T04:51:24;32.27;;;17.70;;
1262;SDS011;62267;50.112;8.704;2023-01-30T04:53:51;28.97;;;16.23;;
1262;SDS011;62267;50.112;8.704;2023-01-30T04:56:18;32.70;;;18.27;;
1262;SDS011;62267;50.112;8.704;2023-01-30T04:58:47;30.40;;;16.27;;
1262;SDS011;62267;50.112;8.704;2023-01-30T05:03:56;31.57;;;17.80;;
1262;SDS011;62267;50.112;8.704;2023-01-30T05:06:25;30.80;;;18.23;;
1262;SDS011;62267;50.112;8.704;2023-01-30T05:08:53;34.53;;;18.27;;
1262;SDS011;62267;50.112;8.704;2023-01-30T05:11:21;32.27;;;18.37;;
1262;SDS011;62267;50.112;8.704;2023-01-30T05:13:49;31.47;;;18.37;;
1262;SDS011;62267;50.112;8.704;2023-01-30T05:16:17;34.77;;;18.47;;
1262;SDS011;62267;50.112;8.704;2023-01-30T05:18:44;30.30;;;18.00;;
1262;SDS011;62267;50.112;8.704;2023-01-30T05:21:23;36.13;;;19.10;;
1262;SDS011;62267;50.112;8.704;2023-01-30T05:23:51;32.03;;;18.20;;
1262;SDS011;62267;50.112;8.704;2023-01-30T05:26:19;31.00;;;18.77;;
1262;SDS011;62267;50.112;8.704;2023-01-30T05:28:54;38.20;;;17.47;;
1262;SDS011;62267;50.112;8.704;2023-01-30T05:31:23;35.47;;;18.43;;
1262;SDS011;62267;50.112;8.704;2023-01-30T05:33:50;38.67;;;19.70;;
1262;SDS011;62267;50.112;8.704;2023-01-30T05:36:19;34.57;;;18.93;;
1262;SDS011;62267;50.112;8.704;2023-01-30T05:38:49;34.93;;;17.90;;
1262;SDS011;62267;50.112;8.704;2023-01-30T05:41:16;29.60;;;16.30;;
1262;SDS011;62267;50.112;8.704;2023-01-30T05:43:47;30.60;;;16.67;;
1262;SDS011;62267;50.112;8.704;2023-01-30T05:46:17;30.53;;;17.10;;
1262;SDS011;62267;50.112;8.704;2023-01-30T05:48:45;29.30;;;17.10;;
1262;SDS011;62267;50.112;8.704;2023-01-30T05:51:19;29.20;;;18.10;;
1262;SDS011;62267;50.112;8.704;2023-01-30T05:53:47;36.60;;;20.50;;
1262;SDS011;62267;50.112;8.704;2023-01-30T05:56:14;33.33;;;18.17;;
1262;SDS011;62267;50.112;8.704;2023-01-30T05:58:41;34.43;;;17.53;;
1262;SDS011;62267;50.112;8.704;2023-01-30T06:01:10;32.70;;;18.30;;
1262;SDS011;62267;50.112;8.704;2023-01-30T06:03:37;28.00;;;17.47;;
1262;SDS011;62267;50.112;8.704;2023-01-30T06:06:06;29.87;;;17.30;;
1262;SDS011;62267;50.112;8.704;2023-01-30T06:08:33;28.20;;;16.40;;
1262;SDS011;62267;50.112;8.704;2023-01-30T06:11:01;26.97;;;16.13;;
1262;SDS011;62267;50.112;8.704;2023-01-30T06:13:29;34.10;;;18.97;;
1262;SDS011;62267;50.112;8.704;2023-01-30T06:15:59;37.63;;;18.40;;
1262;SDS011;62267;50.112;8.704;2023-01-30T06:18:26;32.47;;;17.93;;
1262;SDS011;62267;50.112;8.704;2023-01-30T06:20:54;31.90;;;18.10;;
1262;SDS011;62267;50.112;8.704;2023-01-30T06:23:21;28.50;;;16.27;;
1262;SDS011;62267;50.112;8.704;2023-01-30T06:25:49;36.33;;;17.47;;
1262;SDS011;62267;50.112;8.704;2023-01-30T06:28:17;34.03;;;16.83;;
1262;SDS011;62267;50.112;8.704;2023-01-30T06:30:44;27.27;;;17.00;;
1262;SDS011;62267;50.112;8.704;2023-01-30T06:33:11;31.13;;;17.03;;
1262;SDS011;62267;50.112;8.704;2023-01-30T06:35:43;34.83;;;18.40;;
1262;SDS011;62267;50.112;8.704;2023-01-30T06:38:10;31.50;;;18.30;;
1262;SDS011;62267;50.112;8.704;2023-01-30T06:40:48;37.10;;;17.83;;
1262;SDS011;62267;50.112;8.704;2023-01-30T06:43:16;35.90;;;18.30;;
1262;SDS011;62267;50.112;8.704;2023-01-30T06:45:44;29.33;;;16.20;;
1262;SDS011;62267;50.112;8.704;2023-01-30T06:48:11;31.50;;;17.67;;
1262;SDS011;62267;50.112;8.704;2023-01-30T06:50:38;31.27;;;17.03;;
1262;SDS011;62267;50.112;8.704;2023-01-30T06:53:06;30.53;;;16.70;;
1262;SDS011;62267;50.112;8.704;2023-01-30T06:55:34;25.80;;;15.53;;
1262;SDS011;62267;50.112;8.704;2023-01-30T06:58:03;29.73;;;16.17;;
1262;SDS011;62267;50.112;8.704;2023-01-30T07:00:31;26.13;;;14.87;;
1262;SDS011;62267;50.112;8.704;2023-01-30T07:02:59;25.03;;;14.87;;
1262;SDS011;62267;50.112;8.704;2023-01-30T07:05:27;29.47;;;14.40;;
1262;SDS011;62267;50.112;8.704;2023-01-30T07:07:54;21.87;;;14.60;;
1262;SDS011;62267;50.112;8.704;2023-01-30T07:10:21;26.30;;;14.53;;
1262;SDS011;62267;50.112;8.704;2023-01-30T07:12:51;24.97;;;15.40;;
1262;SDS011;62267;50.112;8.704;2023-01-30T07:15:19;29.30;;;15.20;;
1262;SDS011;62267;50.112;8.704;2023-01-30T07:17:48;32.33;;;15.27;;
1262;SDS011;62267;50.112;8.704;2023-01-30T07:20:15;28.47;;;17.00;;
1262;SDS011;62267;50.112;8.704;2023-01-30T07:22:47;30.93;;;16.07;;
1262;SDS011;62267;50.112;8.704;2023-01-30T07:25:15;23.17;;;14.43;;
1262;SDS011;62267;50.112;8.704;2023-01-30T07:27:42;21.80;;;13.83;;
1262;SDS011;62267;50.112;8.704;2023-01-30T07:30:17;24.10;;;13.17;;
1262;SDS011;62267;50.112;8.704;2023-01-30T07:32:48;26.27;;;14.07;;
1262;SDS011;62267;50.112;8.704;2023-01-30T07:35:16;22.43;;;13.03;;
1262;SDS011;62267;50.112;8.704;2023-01-30T07:37:45;25.23;;;13.30;;
1262;SDS011;62267;50.112;8.704;2023-01-30T07:40:13;20.53;;;12.27;;
1262;SDS011;62267;50.112;8.704;2023-01-30T07:42:40;22.60;;;15.37;;
1262;SDS011;62267;50.112;8.704;2023-01-30T07:45:08;23.23;;;13.30;;
1262;SDS011;62267;50.112;8.704;2023-01-30T07:47:35;27.07;;;14.37;;
1262;SDS011;62267;50.112;8.704;2023-01-30T07:50:03;24.80;;;13.17;;
1262;SDS011;62267;50.112;8.704;2023-01-30T07:52:30;23.70;;;13.13;;
1262;SDS011;62267;50.112;8.704;2023-01-30T07:54:58;24.40;;;13.80;;
1262;SDS011;62267;50.112;8.704;2023-01-30T07:57:27;22.40;;;13.10;;
1262;SDS011;62267;50.112;8.704;2023-01-30T07:59:54;25.00;;;15.10;;
1262;SDS011;62267;50.112;8.704;2023-01-30T08:02:22;19.67;;;12.57;;
1262;SDS011;62267;50.112;8.704;2023-01-30T08:04:50;25.13;;;13.87;;
1262;SDS011;62267;50.112;8.704;2023-01-30T08:07:17;23.23;;;12.90;;
1262;SDS011;62267;50.112;8.704;2023-01-30T08:09:44;25.00;;;13.90;;
1262;SDS011;62267;50.112;8.704;2023-01-30T08:12:11;25.23;;;15.77;;
1262;SDS011;62267;50.112;8.704;2023-01-30T08:14:38;24.03;;;13.37;;
1262;SDS011;62267;50.112;8.704;2023-01-30T08:17:06;23.30;;;13.90;;
1262;SDS011;62267;50.112;8.704;2023-01-30T08:19:33;21.30;;;12.60;;
1262;SDS011;62267;50.112;8.704;2023-01-30T08:22:01;23.40;;;13.73;;
1262;SDS011;62267;50.112;8.704;2023-01-30T08:24:29;23.83;;;13.63;;
1262;SDS011;62267;50.112;8.704;2023-01-30T08:26:56;23.47;;;13.60;;
1262;SDS011;62267;50.112;8.704;2023-01-30T08:29:25;26.07;;;13.37;;
1262;SDS011;62267;50.112;8.704;2023-01-30T08:31:55;21.40;;;12.67;;
1262;SDS011;62267;50.112;8.704;2023-01-30T08:34:24;29.50;;;13.20;;
1262;SDS011;62267;50.112;8.704;2023-01-30T08:36:51;23.50;;;14.10;;
1262;SDS011;62267;50.112;8.704;2023-01-30T08:39:18;20.53;;;13.77;;
1262;SDS011;62267;50.112;8.704;2023-01-30T08:41:46;25.97;;;13.27;;
1262;SDS011;62267;50.112;8.704;2023-01-30T08:44:13;19.77;;;11.90;;
1262;SDS011;62267;50.112;8.704;2023-01-30T08:46:41;24.93;;;13.70;;
1262;SDS011;62267;50.112;8.704;2023-01-30T08:49:08;22.17;;;13.30;;
1262;SDS011;62267;50.112;8.704;2023-01-30T08:51:36;22.57;;;13.10;;
1262;SDS011;62267;50.112;8.704;2023-01-30T08:54:03;20.30;;;13.67;;
1262;SDS011;62267;50.112;8.704;2023-01-30T08:56:33;21.83;;;11.80;;
1262;SDS011;62267;50.112;8.704;2023-01-30T08:59:00;25.57;;;12.70;;
1262;SDS011;62267;50.112;8.704;2023-01-30T09:01:27;20.87;;;12.83;;
1262;SDS011;62267;50.112;8.704;2023-01-30T09:03:55;17.80;;;11.60;;
1262;SDS011;62267;50.112;8.704;2023-01-30T09:06:23;16.10;;;10.37;;
1262;SDS011;62267;50.112;8.704;2023-01-30T09:08:51;18.00;;;12.23;;
1262;SDS011;62267;50.112;8.704;2023-01-30T09:11:19;17.10;;;11.60;;
1262;SDS011;62267;50.112;8.704;2023-01-30T09:13:46;18.30;;;11.80;;
1262;SDS011;62267;50.112;8.704;2023-01-30T09:16:15;17.57;;;11.20;;
1262;SDS011;62267;50.112;8.704;2023-01-30T09:18:42;19.80;;;11.17;;
1262;SDS011;62267;50.112;8.704;2023-01-30T09:21:10;19.70;;;10.30;;
1262;SDS011;62267;50.112;8.704;2023-01-30T09:23:38;16.57;;;11.07;;
1262;SDS011;62267;50.112;8.704;2023-01-30T09:26:06;19.07;;;10.97;;
1262;SDS011;62267;50.112;8.704;2023-01-30T09:28:33;14.73;;;9.37;;
1262;SDS011;62267;50.112;8.704;2023-01-30T09:31:02;17.70;;;10.10;;
1262;SDS011;62267;50.112;8.704;2023-01-30T09:33:30;11.37;;;8.47;;
1262;SDS011;62267;50.112;8.704;2023-01-30T09:35:58;14.20;;;8.90;;
1262;SDS011;62267;50.112;8.704;2023-01-30T09:38:25;12.20;;;7.97;;
1262;SDS011;62267;50.112;8.704;2023-01-30T09:43:29;11.47;;;7.87;;
1262;SDS011;62267;50.112;8.704;2023-01-30T09:48:33;12.13;;;8.70;;
1262;SDS011;62267;50.112;8.704;2023-01-30T09:51:29;10.03;;;7.00;;
1262;SDS011;62267;50.112;8.704;2023-01-30T09:56:45;11.47;;;7.50;;
1262;SDS011;62267;50.112;8.704;2023-01-30T09:59:20;12.90;;;8.23;;
1262;SDS011;62267;50.112;8.704;2023-01-30T10:04:29;8.60;;;6.57;;
1262;SDS011;62267;50.112;8.704;2023-01-30T10:12:07;5.97;;;5.37;;
1262;SDS011;62267;50.112;8.704;2023-01-30T10:14:43;7.77;;;5.80;;
1262;SDS011;62267;50.112;8.704;2023-01-30T10:20:02;6.60;;;5.43;;
1262;SDS011;62267;50.112;8.704;2023-01-30T10:22:47;7.53;;;4.97;;
1262;SDS011;62267;50.112;8.704;2023-01-30T10:25:36;4.80;;;4.33;;
1262;SDS011;62267;50.112;8.704;2023-01-30T10:28:09;7.10;;;5.30;;
1262;SDS011;62267;50.112;8.704;2023-01-30T10:30:38;5.33;;;4.50;;
1262;SDS011;62267;50.112;8.704;2023-01-30T10:33:07;5.67;;;4.30;;
1262;SDS011;62267;50.112;8.704;2023-01-30T10:35:37;5.33;;;4.50;;
1262;SDS011;62267;50.112;8.704;2023-01-30T10:38:09;5.97;;;5.07;;
1262;SDS011;62267;50.112;8.704;2023-01-30T10:40:42;4.93;;;4.27;;
1262;SDS011;62267;50.112;8.704;2023-01-30T10:43:18;5.27;;;4.77;;
1262;SDS011;62267;50.112;8.704;2023-01-30T10:45:49;5.27;;;4.33;;
1262;SDS011;62267;50.112;8.704;2023-01-30T10:48:28;4.77;;;4.03;;
1262;SDS011;62267;50.112;8.704;2023-01-30T10:53:56;4.80;;;4.17;;
1262;SDS011;62267;50.112;8.704;2023-01-30T10:59:14;4.50;;;4.10;;
1262;SDS011;62267;50.112;8.704;2023-01-30T11:01:53;5.60;;;5.10;;
1262;SDS011;62267;50.112;8.704;2023-01-30T11:04:30;3.70;;;3.30;;
1262;SDS011;62267;50.112;8.704;2023-01-30T11:07:00;5.73;;;4.73;;
1262;SDS011;62267;50.112;8.704;2023-01-30T11:09:42;4.83;;;3.87;;
1262;SDS011;62267;50.112;8.704;2023-01-30T11:12:11;8.20;;;4.07;;
1262;SDS011;62267;50.112;8.704;2023-01-30T11:17:27;3.70;;;3.40;;
1262;SDS011;62267;50.112;8.704;2023-01-30T11:19:55;4.30;;;3.90;;
1262;SDS011;62267;50.112;8.704;2023-01-30T11:22:24;3.67;;;3.37;;
1262;SDS011;62267;50.112;8.704;2023-01-30T11:24:59;4.47;;;4.07;;
1262;SDS011;62267;50.112;8.704;2023-01-30T11:27:28;5.47;;;4.47;;
1262;SDS011;62267;50.112;8.704;2023-01-30T11:32:29;3.77;;;3.43;;
1262;SDS011;62267;50.112;8.704;2023-01-30T11:35:02;3.43;;;3.13;;
1262;SDS011;62267;50.112;8.704;2023-01-30T11:37:30;4.40;;;4.00;;
1262;SDS011;62267;50.112;8.704;2023-01-30T11:39:58;3.70;;;3.20;;
1262;SDS011;62267;50.112;8.704;2023-01-30T11:42:30;4.20;;;3.80;;
1262;SDS011;62267;50.112;8.704;2023-01-30T11:44:58;3.90;;;3.20;;
1262;SDS011;62267;50.112;8.704;2023-01-30T11:47:56;3.80;;;3.50;;
1262;SDS011;62267;50.112;8.704;2023-01-30T11:50:29;4.13;;;3.83;;
1262;SDS011;62267;50.112;8.704;2023-01-30T11:53:23;3.87;;;3.57;;
1262;SDS011;62267;50.112;8.704;2023-01-30T11:55:59;3.40;;;3.17;;
1262;SDS011;62267;50.112;8.704;2023-01-30T11:58:35;3.80;;;3.40;;
1262;SDS011;62267;50.112;8.704;2023-01-30T12:01:04;3.50;;;3.20;;
1262;SDS011;62267;50.112;8.704;2023-01-30T12:03:34;3.40;;;3.10;;
1262;SDS011;62267;50.112;8.704;2023-01-30T12:06:05;3.50;;;2.73;;
1262;SDS011;62267;50.112;8.704;2023-01-30T12:08:37;3.17;;;2.87;;
1262;SDS011;62267;50.112;8.704;2023-01-30T12:11:22;3.70;;;3.40;;
1262;SDS011;62267;50.112;8.704;2023-01-30T12:14:04;3.27;;;3.00;;
1262;SDS011;62267;50.112;8.704;2023-01-30T12:16:41;3.10;;;2.80;;
1262;SDS011;62267;50.112;8.704;2023-01-30T12:21:46;4.00;;;3.70;;
1262;SDS011;62267;50.112;8.704;2023-01-30T12:27:23;3.50;;;3.23;;
1262;SDS011;62267;50.112;8.704;2023-01-30T12:29:53;2.80;;;2.60;;
1262;SDS011;62267;50.112;8.704;2023-01-30T12:32:24;3.73;;;3.43;;
1262;SDS011;62267;50.112;8.704;2023-01-30T12:34:52;3.70;;;3.40;;
1262;SDS011;62267;50.112;8.704;2023-01-30T12:42:25;4.07;;;3.67;;
1262;SDS011;62267;50.112;8.704;2023-01-30T12:53:10;3.20;;;2.90;;
1262;SDS011;62267;50.112;8.704;2023-01-30T12:58:29;3.07;;;2.87;;
1262;SDS011;62267;50.112;8.704;2023-01-30T13:03:54;4.67;;;3.47;;
1262;SDS011;62267;50.112;8.704;2023-01-30T13:06:34;3.07;;;2.87;;
1262;SDS011;62267;50.112;8.704;2023-01-30T13:11:38;4.67;;;3.30;;
1262;SDS011;62267;50.112;8.704;2023-01-30T13:14:09;4.97;;;3.43;;
1262;SDS011;62267;50.112;8.704;2023-01-30T13:19:13;5.13;;;3.17;;
1262;SDS011;62267;50.112;8.704;2023-01-30T13:24:36;4.33;;;2.90;;
1262;SDS011;62267;50.112;8.704;2023-01-30T13:27:05;3.60;;;3.10;;
1262;SDS011;62267;50.112;8.704;2023-01-30T13:29:36;4.80;;;3.70;;
1262;SDS011;62267;50.112;8.704;2023-01-30T13:32:08;4.83;;;3.53;;
1262;SDS011;62267;50.112;8.704;2023-01-30T13:34:38;7.83;;;3.40;;
1262;SDS011;62267;50.112;8.704;2023-01-30T13:37:12;4.17;;;3.20;;
1262;SDS011;62267;50.112;8.704;2023-01-30T13:39:50;4.10;;;3.70;;
1262;SDS011;62267;50.112;8.704;2023-01-30T13:42:37;3.23;;;2.93;;
1262;SDS011;62267;50.112;8.704;2023-01-30T13:45:12;5.40;;;3.23;;
1262;SDS011;62267;50.112;8.704;2023-01-30T13:47:49;5.30;;;3.40;;
1262;SDS011;62267;50.112;8.704;2023-01-30T13:53:27;6.30;;;2.93;;
1262;SDS011;62267;50.112;8.704;2023-01-30T13:56:04;4.50;;;3.77;;
1262;SDS011;62267;50.112;8.704;2023-01-30T14:09:35;3.67;;;3.27;;
1262;SDS011;62267;50.112;8.704;2023-01-30T14:12:05;6.10;;;3.50;;
1262;SDS011;62267;50.112;8.704;2023-01-30T14:14:34;3.83;;;3.40;;
1262;SDS011;62267;50.112;8.704;2023-01-30T14:17:08;4.17;;;3.77;;
1262;SDS011;62267;50.112;8.704;2023-01-30T14:19:44;3.40;;;3.10;;
1262;SDS011;62267;50.112;8.704;2023-01-30T14:22:33;3.60;;;3.30;;
1262;SDS011;62267;50.112;8.704;2023-01-30T14:27:54;5.27;;;3.60;;
1262;SDS011;62267;50.112;8.704;2023-01-30T14:30:35;4.97;;;3.47;;
1262;SDS011;62267;50.112;8.704;2023-01-30T14:33:03;6.70;;;3.60;;
1262;SDS011;62267;50.112;8.704;2023-01-30T14:38:20;3.90;;;3.00;;
1262;SDS011;62267;50.112;8.704;2023-01-30T14:40:48;4.13;;;3.13;;
1262;SDS011;62267;50.112;8.704;2023-01-30T14:46:03;5.63;;;3.33;;
1262;SDS011;62267;50.112;8.704;2023-01-30T14:53:49;5.90;;;3.40;;
1262;SDS011;62267;50.112;8.704;2023-01-30T14:56:18;4.80;;;3.90;;
1262;SDS011;62267;50.112;8.704;2023-01-30T14:58:50;3.33;;;3.03;;
1262;SDS011;62267;50.112;8.704;2023-01-30T15:01:18;3.43;;;3.07;;
1262;SDS011;62267;50.112;8.704;2023-01-30T15:03:46;6.00;;;3.67;;
1262;SDS011;62267;50.112;8.704;2023-01-30T15:06:14;4.47;;;3.83;;
1262;SDS011;62267;50.112;8.704;2023-01-30T15:08:42;7.40;;;3.87;;
1262;SDS011;62267;50.112;8.704;2023-01-30T15:11:23;4.17;;;3.53;;
1262;SDS011;62267;50.112;8.704;2023-01-30T15:13:57;3.47;;;3.17;;
1262;SDS011;62267;50.112;8.704;2023-01-30T15:24:45;4.33;;;3.60;;
1262;SDS011;62267;50.112;8.704;2023-01-30T15:29:55;7.27;;;5.00;;
1262;SDS011;62267;50.112;8.704;2023-01-30T15:32:27;4.33;;;3.37;;
1262;SDS011;62267;50.112;8.704;2023-01-30T15:34:56;7.43;;;5.40;;
1262;SDS011;62267;50.112;8.704;2023-01-30T15:37:34;4.70;;;3.37;;
1262;SDS011;62267;50.112;8.704;2023-01-30T15:42:38;5.93;;;3.47;;
1262;SDS011;62267;50.112;8.704;2023-01-30T15:45:11;4.47;;;3.40;;
1262;SDS011;62267;50.112;8.704;2023-01-30T15:50:25;6.73;;;3.67;;
1262;SDS011;62267;50.112;8.704;2023-01-30T15:52:54;7.70;;;4.40;;
1262;SDS011;62267;50.112;8.704;2023-01-30T15:55:23;7.13;;;3.90;;
1262;SDS011;62267;50.112;8.704;2023-01-30T15:57:52;11.70;;;4.13;;
1262;SDS011;62267;50.112;8.704;2023-01-30T16:00:24;6.40;;;3.97;;
1262;SDS011;62267;50.112;8.704;2023-01-30T16:02:52;4.33;;;3.27;;
1262;SDS011;62267;50.112;8.704;2023-01-30T16:05:22;5.83;;;4.13;;
1262;SDS011;62267;50.112;8.704;2023-01-30T16:07:51;13.33;;;4.03;;
1262;SDS011;62267;50.112;8.704;2023-01-30T16:12:47;5.70;;;3.43;;
1262;SDS011;62267;50.112;8.704;2023-01-30T16:16:02;6.57;;;3.53;;
1262;SDS011;62267;50.112;8.704;2023-01-30T16:18:05;7.27;;;3.50;;
1262;SDS011;62267;50.112;8.704;2023-01-30T16:20:45;7.20;;;3.60;;
1262;SDS011;62267;50.112;8.704;2023-01-30T16:23:27;7.00;;;3.90;;
1262;SDS011;62267;50.112;8.704;2023-01-30T16:25:56;6.10;;;3.83;;
1262;SDS011;62267;50.112;8.704;2023-01-30T16:28:25;10.57;;;3.77;;
1262;SDS011;62267;50.112;8.704;2023-01-30T16:30:57;9.50;;;4.23;;
1262;SDS011;62267;50.112;8.704;2023-01-30T16:33:24;11.20;;;5.30;;
1262;SDS011;62267;50.112;8.704;2023-01-30T16:35:52;8.77;;;3.87;;
1262;SDS011;62267;50.112;8.704;2023-01-30T16:38:27;7.30;;;3.70;;
1262;SDS011;62267;50.112;8.704;2023-01-30T16:40:56;9.67;;;3.30;;
1262;SDS011;62267;50.112;8.704;2023-01-30T16:43:26;17.37;;;5.57;;
1262;SDS011;62267;50.112;8.704;2023-01-30T16:48:27;8.17;;;4.50;;
1262;SDS011;62267;50.112;8.704;2023-01-30T16:53:27;7.10;;;3.53;;
1262;SDS011;62267;50.112;8.704;2023-01-30T16:55:59;5.47;;;4.30;;
1262;SDS011;62267;50.112;8.704;2023-01-30T16:58:28;5.17;;;4.10;;
1262;SDS011;62267;50.112;8.704;2023-01-30T17:01:04;10.13;;;3.83;;
1262;SDS011;62267;50.112;8.704;2023-01-30T17:03:33;6.83;;;4.00;;
1262;SDS011;62267;50.112;8.704;2023-01-30T17:06:02;7.50;;;4.37;;
1262;SDS011;62267;50.112;8.704;2023-01-30T17:08:50;11.07;;;4.80;;
1262;SDS011;62267;50.112;8.704;2023-01-30T17:11:37;7.43;;;3.60;;
1262;SDS011;62267;50.112;8.704;2023-01-30T17:14:16;9.10;;;4.23;;
1262;SDS011;62267;50.112;8.704;2023-01-30T17:16:46;14.13;;;5.13;;
1262;SDS011;62267;50.112;8.704;2023-01-30T17:19:13;7.53;;;3.47;;
1262;SDS011;62267;50.112;8.704;2023-01-30T17:21:44;15.60;;;6.67;;